createdAt,value
2022-07-30T00:02:20.715Z,100514.19
2022-07-30T00:04:48.742Z,100500.66
2022-07-30T00:07:16.588Z,100508.97
2022-07-30T00:09:44.417Z,100500.44
2022-07-30T00:12:13.591Z,100504.81
2022-07-30T00:14:41.444Z,100498.22
2022-07-30T00:17:09.547Z,100493.75
2022-07-30T00:19:37.353Z,100496.00
2022-07-30T00:22:05.194Z,100499.34
2022-07-30T00:24:32.965Z,100488.84
2022-07-30T00:27:01.084Z,100492.75
2022-07-30T00:29:30.845Z,100486.13
2022-07-30T00:31:58.663Z,100485.81
2022-07-30T00:34:26.814Z,100485.25
2022-07-30T00:36:54.652Z,100480.22
2022-07-30T00:39:22.462Z,100485.16
2022-07-30T00:41:59.207Z,100484.84
2022-07-30T00:44:27.120Z,100476.50
2022-07-30T00:46:56.776Z,100497.38
2022-07-30T00:49:25.170Z,100496.16
2022-07-30T00:51:53.355Z,100487.34
2022-07-30T00:54:22.128Z,100471.94
2022-07-30T00:56:50.194Z,100472.13
2022-07-30T00:59:18.154Z,100473.72
2022-07-30T01:01:46.103Z,100472.94
2022-07-30T01:04:15.269Z,100461.56
2022-07-30T01:06:43.044Z,100481.38
2022-07-30T01:09:11.004Z,100474.28
2022-07-30T01:11:41.092Z,100467.69
2022-07-30T01:14:10.232Z,100464.94
2022-07-30T01:16:41.557Z,100461.63
2022-07-30T01:19:39.250Z,100470.38
2022-07-30T01:22:13.458Z,100465.59
2022-07-30T01:24:44.383Z,100470.22
2022-07-30T01:27:19.730Z,100468.59
2022-07-30T01:29:48.881Z,100470.78
2022-07-30T01:32:19.697Z,100465.78
2022-07-30T01:34:48.529Z,100469.31
2022-07-30T01:37:17.844Z,100466.88
2022-07-30T01:39:49.529Z,100465.19
2022-07-30T01:42:20.329Z,100456.69
2022-07-30T01:44:50.072Z,100476.06
2022-07-30T01:47:19.823Z,100457.28
2022-07-30T01:49:49.897Z,100474.38
2022-07-30T01:52:19.696Z,100456.06
2022-07-30T01:54:51.141Z,100482.41
2022-07-30T01:57:22.068Z,100480.47
2022-07-30T01:59:53.230Z,100489.06
2022-07-30T02:02:21.230Z,100493.66
2022-07-30T02:04:49.236Z,100492.56
2022-07-30T02:07:24.002Z,100493.00
2022-07-30T02:09:56.561Z,100492.53
2022-07-30T02:12:29.809Z,100481.22
2022-07-30T02:15:14.934Z,100480.94
2022-07-30T02:17:46.612Z,100497.41
2022-07-30T02:20:17.547Z,100500.22
2022-07-30T02:22:48.159Z,100488.31
2022-07-30T02:25:19.558Z,100508.19
2022-07-30T02:27:53.771Z,100499.28
2022-07-30T02:30:26.823Z,100504.03
2022-07-30T02:33:00.316Z,100508.09
2022-07-30T02:35:30.623Z,100515.03
2022-07-30T02:38:00.845Z,100502.47
2022-07-30T02:40:29.823Z,100507.38
2022-07-30T02:43:01.313Z,100508.59
2022-07-30T02:45:30.148Z,100505.09
2022-07-30T02:48:01.862Z,100507.19
2022-07-30T02:50:31.690Z,100516.78
2022-07-30T02:53:01.615Z,100517.59
2022-07-30T02:55:33.454Z,100527.41
2022-07-30T02:58:05.153Z,100525.25
2022-07-30T03:00:33.862Z,100525.94
2022-07-30T03:03:03.376Z,100524.75
2022-07-30T03:05:31.786Z,100519.56
2022-07-30T03:08:01.209Z,100515.81
2022-07-30T03:10:30.204Z,100517.31
2022-07-30T03:12:59.818Z,100528.44
2022-07-30T03:15:30.590Z,100532.78
2022-07-30T03:18:00.203Z,100530.94
2022-07-30T03:20:30.958Z,100530.09
2022-07-30T03:23:02.337Z,100548.00
2022-07-30T03:25:32.038Z,100543.94
2022-07-30T03:28:03.766Z,100546.88
2022-07-30T03:30:35.578Z,100546.94
2022-07-30T03:33:03.810Z,100554.31
2022-07-30T03:35:32.417Z,100550.66
2022-07-30T03:38:01.399Z,100545.06
2022-07-30T03:40:30.373Z,100550.00
2022-07-30T03:42:58.947Z,100544.97
2022-07-30T03:45:27.383Z,100545.91
2022-07-30T03:47:57.377Z,100560.47
2022-07-30T03:50:25.347Z,100557.16
2022-07-30T03:52:53.628Z,100545.31
2022-07-30T03:55:22.916Z,100555.34
2022-07-30T03:57:51.025Z,100544.97
2022-07-30T04:00:18.946Z,100566.56
2022-07-30T04:02:48.146Z,100565.44
2022-07-30T04:05:17.983Z,100565.66
2022-07-30T04:07:45.741Z,100573.59
2022-07-30T04:10:15.659Z,100551.59
2022-07-30T04:12:43.935Z,100561.63
2022-07-30T04:16:31.752Z,100563.75
2022-07-30T04:18:04.428Z,100557.16
2022-07-30T04:20:40.807Z,100565.31
2022-07-30T04:23:10.444Z,100580.94
2022-07-30T04:25:38.870Z,100584.72
2022-07-30T04:28:07.265Z,100590.00
2022-07-30T04:30:35.318Z,100587.34
2022-07-30T04:33:04.248Z,100578.91
2022-07-30T04:35:51.368Z,100591.13
2022-07-30T04:38:20.583Z,100600.59
2022-07-30T04:40:48.932Z,100593.53
2022-07-30T04:43:16.803Z,100596.66
2022-07-30T04:45:44.758Z,100596.25
2022-07-30T04:48:12.623Z,100605.44
2022-07-30T04:50:44.357Z,100605.66
2022-07-30T04:53:12.556Z,100596.03
2022-07-30T04:55:43.407Z,100621.75
2022-07-30T04:58:13.221Z,100619.69
2022-07-30T05:00:41.723Z,100599.50
2022-07-30T05:03:12.769Z,100608.84
2022-07-30T05:05:43.446Z,100611.03
2022-07-30T05:08:13.513Z,100609.88
2022-07-30T05:10:41.657Z,100608.88
2022-07-30T05:13:12.305Z,100613.16
2022-07-30T05:15:41.416Z,100613.50
2022-07-30T05:18:09.607Z,100608.06
2022-07-30T05:20:37.727Z,100619.41
2022-07-30T05:23:08.108Z,100607.97
2022-07-30T05:25:35.879Z,100605.84
2022-07-30T05:28:03.697Z,100617.03
2022-07-30T05:30:31.587Z,100617.19
2022-07-30T05:32:59.461Z,100624.38
2022-07-30T05:35:31.275Z,100622.94
2022-07-30T05:38:00.101Z,100618.97
2022-07-30T05:40:29.287Z,100620.22
2022-07-30T05:42:57.215Z,100628.53
2022-07-30T05:45:25.011Z,100621.16
2022-07-30T05:47:52.766Z,100615.66
2022-07-30T05:50:20.926Z,100626.75
2022-07-30T05:52:48.957Z,100623.44
2022-07-30T05:55:16.875Z,100610.50
2022-07-30T05:57:45.985Z,100623.78
2022-07-30T06:00:14.685Z,100614.47
2022-07-30T06:02:42.511Z,100612.56
2022-07-30T06:05:10.473Z,100623.88
2022-07-30T06:07:38.195Z,100615.56
2022-07-30T06:10:07.021Z,100621.44
2022-07-30T06:12:34.856Z,100614.88
2022-07-30T06:15:05.197Z,100625.91
2022-07-30T06:17:41.279Z,100619.38
2022-07-30T06:20:10.679Z,100626.56
2022-07-30T06:22:38.534Z,100624.09
2022-07-30T06:25:07.280Z,100627.66
2022-07-30T06:27:39.593Z,100611.94
2022-07-30T06:30:11.844Z,100624.91
2022-07-30T06:32:39.626Z,100621.34
2022-07-30T06:35:08.519Z,100630.16
2022-07-30T06:38:06.223Z,100628.50
2022-07-30T06:40:24.160Z,100633.16
2022-07-30T06:42:51.912Z,100625.94
2022-07-30T06:45:21.130Z,100622.94
2022-07-30T06:47:49.046Z,100627.06
2022-07-30T06:50:18.934Z,100632.28
2022-07-30T06:52:47.200Z,100627.47
2022-07-30T06:55:15.052Z,100637.16
2022-07-30T06:57:42.858Z,100637.97
2022-07-30T07:00:11.631Z,100635.59
2022-07-30T07:02:42.574Z,100632.78
2022-07-30T07:05:10.857Z,100632.53
2022-07-30T07:07:43.227Z,100643.56
2022-07-30T07:10:14.188Z,100629.88
2022-07-30T07:12:41.946Z,100628.22
2022-07-30T07:15:10.770Z,100630.38
2022-07-30T07:17:40.383Z,100642.63
2022-07-30T07:20:08.962Z,100625.19
2022-07-30T07:22:36.752Z,100633.91
2022-07-30T07:25:05.054Z,100641.66
2022-07-30T07:27:32.831Z,100629.72
2022-07-30T07:30:05.567Z,100628.41
2022-07-30T07:32:34.430Z,100626.38
2022-07-30T07:35:03.648Z,100621.09
2022-07-30T07:37:31.487Z,100632.31
2022-07-30T07:39:59.313Z,100628.75
2022-07-30T07:42:27.108Z,100630.13
2022-07-30T07:44:54.991Z,100616.56
2022-07-30T07:47:22.767Z,100622.25
2022-07-30T07:49:50.551Z,100624.03
2022-07-30T07:52:19.893Z,100621.84
2022-07-30T07:54:47.739Z,100627.84
2022-07-30T07:57:15.595Z,100623.75
2022-07-30T07:59:44.566Z,100610.19
2022-07-30T08:02:12.575Z,100620.75
2022-07-30T08:04:40.790Z,100624.81
2022-07-30T08:07:08.598Z,100614.06
2022-07-30T08:09:40.589Z,100615.63
2022-07-30T08:12:12.825Z,100621.38
2022-07-30T08:14:40.900Z,100613.53
2022-07-30T08:17:09.570Z,100614.59
2022-07-30T08:19:37.538Z,100613.56
2022-07-30T08:22:05.365Z,100621.97
2022-07-30T08:24:33.605Z,100623.28
2022-07-30T08:27:03.487Z,100622.19
2022-07-30T08:29:31.656Z,100617.16
2022-07-30T08:31:59.729Z,100614.03
2022-07-30T08:34:28.904Z,100615.13
2022-07-30T08:36:56.863Z,100608.44
2022-07-30T08:39:24.672Z,100607.50
2022-07-30T08:41:52.688Z,100612.03
2022-07-30T08:44:22.619Z,100617.91
2022-07-30T08:46:53.057Z,100616.75
2022-07-30T08:49:25.060Z,100607.59
2022-07-30T08:51:53.252Z,100609.75
2022-07-30T08:54:21.174Z,100608.81
2022-07-30T08:56:50.386Z,100621.41
2022-07-30T08:59:19.058Z,100623.53
2022-07-30T09:01:49.778Z,100613.50
2022-07-30T09:04:17.550Z,100622.19
2022-07-30T09:06:45.838Z,100631.03
2022-07-30T09:09:15.119Z,100624.44
2022-07-30T09:11:43.106Z,100614.38
2022-07-30T09:14:13.539Z,100630.22
2022-07-30T09:16:42.152Z,100630.72
2022-07-30T09:19:16.795Z,100632.34
2022-07-30T09:21:56.730Z,100630.78
2022-07-30T09:24:24.586Z,100624.59
2022-07-30T09:26:58.340Z,100627.38
2022-07-30T09:29:28.308Z,100631.94
2022-07-30T09:31:57.689Z,100629.81
2022-07-30T09:34:28.821Z,100634.22
2022-07-30T09:36:58.170Z,100623.28
2022-07-30T09:39:30.133Z,100621.84
2022-07-30T09:41:58.316Z,100628.53
2022-07-30T09:44:28.206Z,100625.09
2022-07-30T09:46:56.570Z,100624.00
2022-07-30T09:49:26.065Z,100621.97
2022-07-30T09:51:57.512Z,100617.16
2022-07-30T09:54:26.584Z,100625.00
2022-07-30T09:57:22.747Z,100623.00
2022-07-30T09:59:54.588Z,100619.63
2022-07-30T10:02:29.604Z,100618.47
2022-07-30T10:05:14.080Z,100591.84
2022-07-30T10:07:52.069Z,100611.59
2022-07-30T10:10:25.192Z,100605.75
2022-07-30T10:12:57.942Z,100614.53
2022-07-30T10:15:29.538Z,100604.53
2022-07-30T10:17:58.081Z,100607.63
2022-07-30T10:24:06.835Z,100614.94
2022-07-30T10:26:35.981Z,100600.13
2022-07-30T10:29:04.069Z,100601.66
2022-07-30T10:31:47.041Z,100601.09
2022-07-30T10:34:23.606Z,100596.81
2022-07-30T10:36:58.590Z,100598.25
2022-07-30T10:39:34.446Z,100588.31
2022-07-30T10:42:17.915Z,100587.41
2022-07-30T10:45:01.451Z,100586.81
2022-07-30T10:47:34.465Z,100585.78
2022-07-30T10:50:10.433Z,100585.34
2022-07-30T10:52:53.174Z,100589.97
2022-07-30T10:55:37.128Z,100590.53
2022-07-30T10:58:08.056Z,100580.00
2022-07-30T11:00:38.255Z,100591.03
2022-07-30T11:03:18.115Z,100584.91
2022-07-30T11:05:48.438Z,100589.69
2022-07-30T11:08:36.283Z,100574.59
2022-07-30T11:12:02.058Z,100580.34
2022-07-30T11:14:15.458Z,100581.72
2022-07-30T11:17:02.013Z,100584.69
2022-07-30T11:19:53.182Z,100573.88
2022-07-30T11:22:27.102Z,100572.66
2022-07-30T11:24:55.286Z,100578.75
2022-07-30T11:27:41.798Z,100578.75
2022-07-30T11:30:34.158Z,100583.69
2022-07-30T11:33:33.029Z,100573.69
2022-07-30T11:36:12.684Z,100560.78
2022-07-30T11:38:55.600Z,100571.50
2022-07-30T11:41:24.243Z,100571.03
2022-07-30T11:44:25.201Z,100572.00
2022-07-30T11:46:54.409Z,100562.84
2022-07-30T11:49:22.307Z,100554.34
2022-07-30T11:51:50.884Z,100565.78
2022-07-30T11:54:18.957Z,100564.28
2022-07-30T11:56:50.914Z,100560.66
2022-07-30T11:59:18.760Z,100563.66
2022-07-30T12:01:51.522Z,100554.94
2022-07-30T12:04:20.776Z,100564.84
2022-07-30T12:06:50.079Z,100561.38
2022-07-30T12:09:27.422Z,100563.25
2022-07-30T12:11:55.694Z,100555.63
2022-07-30T12:14:23.574Z,100561.59
2022-07-30T12:16:52.747Z,100560.88
2022-07-30T12:19:22.385Z,100552.47
2022-07-30T12:21:53.343Z,100550.66
2022-07-30T12:24:26.598Z,100549.09
2022-07-30T12:27:05.895Z,100539.72
2022-07-30T12:29:35.150Z,100540.53
2022-07-30T12:32:03.249Z,100544.03
2022-07-30T12:34:33.701Z,100543.22
2022-07-30T12:37:09.764Z,100548.00
2022-07-30T12:39:37.719Z,100527.72
2022-07-30T12:42:05.813Z,100532.78
2022-07-30T12:44:41.629Z,100535.63
2022-07-30T12:47:21.563Z,100531.31
2022-07-30T12:49:53.212Z,100527.28
2022-07-30T12:52:28.119Z,100524.09
2022-07-30T12:55:02.247Z,100537.22
2022-07-30T12:57:50.401Z,100533.84
2022-07-30T13:00:18.469Z,100531.25
2022-07-30T13:02:46.366Z,100518.56
2022-07-30T13:05:15.635Z,100520.00
2022-07-30T13:08:01.179Z,100506.09
2022-07-30T13:10:31.417Z,100514.44
2022-07-30T13:12:59.690Z,100517.97
2022-07-30T13:15:27.574Z,100528.91
2022-07-30T13:17:55.377Z,100517.34
2022-07-30T13:20:24.724Z,100525.31
2022-07-30T13:22:52.735Z,100523.56
2022-07-30T13:25:20.518Z,100514.25
2022-07-30T13:27:48.514Z,100527.31
2022-07-30T13:30:16.563Z,100526.91
2022-07-30T13:32:44.298Z,100529.84
2022-07-30T13:35:12.109Z,100525.72
2022-07-30T13:37:41.255Z,100523.25
2022-07-30T13:40:10.501Z,100523.97
2022-07-30T13:42:38.405Z,100520.38
2022-07-30T13:45:07.309Z,100518.88
2022-07-30T13:47:35.648Z,100532.03
2022-07-30T13:50:03.475Z,100520.34
2022-07-30T13:52:31.249Z,100522.38
2022-07-30T13:55:00.445Z,100506.63
2022-07-30T13:57:28.266Z,100500.22
2022-07-30T13:59:56.084Z,100492.59
2022-07-30T14:02:23.874Z,100493.41
2022-07-30T14:04:52.411Z,100432.41
2022-07-30T14:07:20.416Z,100483.59
2022-07-30T14:09:52.676Z,100488.56
2022-07-30T14:12:25.457Z,100468.38
2022-07-30T14:14:53.292Z,100499.66
2022-07-30T14:17:21.107Z,100496.25
2022-07-30T14:19:50.224Z,100499.47
2022-07-30T14:22:20.410Z,100487.56
2022-07-30T14:24:48.642Z,100430.56
2022-07-30T14:27:18.300Z,100476.69
2022-07-30T14:29:47.867Z,100487.94
2022-07-30T14:32:15.663Z,100469.94
2022-07-30T14:34:49.114Z,100496.25
2022-07-30T14:37:17.653Z,100501.38
2022-07-30T14:39:45.473Z,100489.75
2022-07-30T14:42:13.309Z,100486.31
2022-07-30T14:44:41.270Z,100485.00
2022-07-30T14:47:10.710Z,100491.22
2022-07-30T14:49:38.599Z,100483.47
2022-07-30T14:52:06.850Z,100483.25
2022-07-30T14:54:34.725Z,100483.91
2022-07-30T14:57:02.904Z,100488.81
2022-07-30T14:59:30.930Z,100480.69
2022-07-30T15:01:58.792Z,100485.09
2022-07-30T15:04:28.036Z,100487.50
2022-07-30T15:06:55.883Z,100481.38
2022-07-30T15:09:23.708Z,100480.41
2022-07-30T15:12:09.309Z,100481.25
2022-07-30T15:14:38.671Z,100472.31
2022-07-30T15:17:08.008Z,100473.56
2022-07-30T15:19:37.182Z,100479.50
2022-07-30T15:22:14.138Z,100462.94
2022-07-30T15:24:42.051Z,100469.44
2022-07-30T15:27:09.874Z,100476.22
2022-07-30T15:29:37.773Z,100477.94
2022-07-30T15:32:06.189Z,100467.00
2022-07-30T15:34:34.991Z,100460.41
2022-07-30T15:37:05.405Z,100478.56
2022-07-30T15:39:33.738Z,100473.13
2022-07-30T15:42:02.215Z,100477.53
2022-07-30T15:44:30.432Z,100464.34
2022-07-30T15:46:58.444Z,100484.50
2022-07-30T15:49:26.796Z,100480.81
2022-07-30T15:51:55.018Z,100494.34
2022-07-30T15:54:26.627Z,100486.19
2022-07-30T15:57:00.808Z,100467.47
2022-07-30T15:59:30.179Z,100499.47
2022-07-30T16:01:58.313Z,100491.72
2022-07-30T16:04:31.975Z,100489.94
2022-07-30T16:07:00.964Z,100497.88
2022-07-30T16:09:30.564Z,100472.88
2022-07-30T16:11:58.758Z,100484.94
2022-07-30T16:14:27.024Z,100481.69
2022-07-30T16:16:54.855Z,100497.97
2022-07-30T16:19:23.127Z,100502.75
2022-07-30T16:21:51.017Z,100491.13
2022-07-30T16:24:18.815Z,100501.56
2022-07-30T16:26:47.973Z,100499.41
2022-07-30T16:29:15.762Z,100506.50
2022-07-30T16:31:43.819Z,100504.69
2022-07-30T16:34:11.867Z,100492.88
2022-07-30T16:36:39.866Z,100496.72
2022-07-30T16:39:08.030Z,100501.81
2022-07-30T16:41:36.328Z,100508.72
2022-07-30T16:44:05.913Z,100510.03
2022-07-30T16:46:33.733Z,100496.22
2022-07-30T16:49:01.573Z,100489.69
2022-07-30T16:51:29.369Z,100510.03
2022-07-30T16:53:57.180Z,100502.81
2022-07-30T16:56:25.174Z,100503.31
2022-07-30T16:58:53.104Z,100502.31
2022-07-30T17:01:22.246Z,100507.25
2022-07-30T17:03:50.401Z,100495.25
2022-07-30T17:06:18.266Z,100495.91
2022-07-30T17:08:46.018Z,100506.41
2022-07-30T17:11:47.692Z,100505.06
2022-07-30T17:14:04.389Z,100504.72
2022-07-30T17:16:33.834Z,100507.81
2022-07-30T17:19:09.307Z,100508.31
2022-07-30T17:21:38.018Z,100510.78
2022-07-30T17:24:11.039Z,100508.38
2022-07-30T17:26:40.296Z,100513.22
2022-07-30T17:29:13.469Z,100502.88
2022-07-30T17:31:44.223Z,100519.47
2022-07-30T17:34:14.186Z,100520.59
2022-07-30T17:36:47.021Z,100513.16
2022-07-30T17:40:26.708Z,100529.72
2022-07-30T17:42:10.341Z,100526.25
2022-07-30T17:44:39.266Z,100528.88
2022-07-30T17:47:14.009Z,100535.91
2022-07-30T17:49:43.120Z,100525.75
2022-07-30T17:52:11.454Z,100530.13
2022-07-30T17:54:39.318Z,100525.50
2022-07-30T17:57:07.195Z,100528.97
2022-07-30T17:59:35.085Z,100521.59
2022-07-30T18:02:04.296Z,100534.69
2022-07-30T18:04:34.955Z,100535.69
2022-07-30T18:07:03.434Z,100535.22
2022-07-30T18:09:39.514Z,100537.34
2022-07-30T18:12:09.330Z,100538.63
2022-07-30T18:14:37.298Z,100529.38
2022-07-30T18:17:05.257Z,100535.03
2022-07-30T18:19:34.480Z,100543.50
2022-07-30T18:22:03.159Z,100537.09
2022-07-30T18:24:44.397Z,100531.34
2022-07-30T18:27:13.188Z,100549.53
2022-07-30T18:29:41.054Z,100540.72
2022-07-30T18:32:09.581Z,100554.91
2022-07-30T18:34:38.740Z,100556.28
2022-07-30T18:37:06.633Z,100559.72
2022-07-30T18:39:34.457Z,100564.28
2022-07-30T18:42:03.475Z,100563.75
2022-07-30T18:44:32.365Z,100556.59
2022-07-30T18:47:00.505Z,100566.13
2022-07-30T18:49:37.463Z,100576.06
2022-07-30T18:52:08.255Z,100575.69
2022-07-30T18:54:37.294Z,100577.16
2022-07-30T18:57:05.797Z,100579.81
2022-07-30T18:59:33.787Z,100584.09
2022-07-30T19:02:02.252Z,100580.59
2022-07-30T19:04:31.279Z,100595.56
2022-07-30T19:06:59.081Z,100601.63
2022-07-30T19:09:28.319Z,100602.09
2022-07-30T19:11:56.056Z,100602.66
2022-07-30T19:14:23.864Z,100620.44
2022-07-30T19:16:54.759Z,100612.31
2022-07-30T19:19:27.817Z,100614.91
2022-07-30T19:21:55.949Z,100613.56
2022-07-30T19:24:23.814Z,100595.22
2022-07-30T19:26:57.019Z,100617.84
2022-07-30T19:29:24.907Z,100620.03
2022-07-30T19:31:52.732Z,100618.41
2022-07-30T19:34:20.511Z,100628.56
2022-07-30T19:36:48.323Z,100629.72
2022-07-30T19:39:21.615Z,100630.78
2022-07-30T19:41:51.088Z,100631.09
2022-07-30T19:44:20.438Z,100640.19
2022-07-30T19:46:51.614Z,100637.50
2022-07-30T19:49:20.129Z,100644.72
2022-07-30T19:52:17.757Z,100637.38
2022-07-30T19:54:37.879Z,100645.75
2022-07-30T19:57:05.788Z,100654.59
2022-07-30T19:59:46.299Z,100663.75
2022-07-30T20:02:23.363Z,100666.47
2022-07-30T20:04:51.518Z,100669.28
2022-07-30T20:07:19.351Z,100665.19
2022-07-30T20:09:48.599Z,100669.03
2022-07-30T20:12:17.242Z,100679.59
2022-07-30T20:14:46.361Z,100680.72
2022-07-30T20:17:14.581Z,100672.34
2022-07-30T20:19:47.949Z,100668.19
2022-07-30T20:22:17.041Z,100664.91
2022-07-30T20:24:45.116Z,100670.94
2022-07-30T20:27:37.252Z,100675.31
2022-07-30T20:30:02.342Z,100671.19
2022-07-30T20:32:30.149Z,100675.66
2022-07-30T20:34:58.310Z,100660.78
2022-07-30T20:37:27.377Z,100690.88
2022-07-30T20:39:55.951Z,100686.75
2022-07-30T20:42:24.209Z,100676.00
2022-07-30T20:44:56.712Z,100686.22
2022-07-30T20:47:38.330Z,100679.06
2022-07-30T20:50:09.576Z,100678.25
2022-07-30T20:52:39.339Z,100673.28
2022-07-30T20:55:08.417Z,100655.25
2022-07-30T20:57:57.301Z,100657.38
2022-07-30T21:00:25.425Z,100672.56
2022-07-30T21:02:54.636Z,100670.91
2022-07-30T21:05:22.485Z,100669.56
2022-07-30T21:07:56.349Z,100668.19
2022-07-30T21:10:26.141Z,100661.00
2022-07-30T21:12:58.404Z,100669.53
2022-07-30T21:15:26.810Z,100667.88
2022-07-30T21:18:01.975Z,100674.88
2022-07-30T21:20:31.239Z,100661.38
2022-07-30T21:23:04.600Z,100679.03
2022-07-30T21:25:33.470Z,100666.28
2022-07-30T21:28:02.737Z,100670.69
2022-07-30T21:30:32.742Z,100677.59
2022-07-30T21:33:02.118Z,100683.16
2022-07-30T21:35:32.122Z,100664.72
2022-07-30T21:38:00.405Z,100667.53
2022-07-30T21:40:28.892Z,100675.00
2022-07-30T21:42:57.254Z,100674.47
2022-07-30T21:45:27.025Z,100686.63
2022-07-30T21:48:09.349Z,100678.06
2022-07-30T21:50:39.877Z,100678.06
2022-07-30T21:53:08.615Z,100676.72
2022-07-30T21:55:52.984Z,100683.06
2022-07-30T21:58:25.859Z,100676.47
2022-07-30T22:01:14.980Z,100680.31
2022-07-30T22:04:02.955Z,100686.41
2022-07-30T22:06:33.548Z,100681.16
2022-07-30T22:09:03.452Z,100693.03
2022-07-30T22:11:42.613Z,100692.75
2022-07-30T22:14:13.251Z,100691.09
2022-07-30T22:16:46.270Z,100670.97
2022-07-30T22:19:16.291Z,100704.31
2022-07-30T22:21:46.456Z,100698.53
2022-07-30T22:24:29.114Z,100700.47
2022-07-30T22:27:01.695Z,100692.75
2022-07-30T22:29:41.555Z,100690.00
2022-07-30T22:32:10.778Z,100691.09
2022-07-30T22:34:40.132Z,100691.06
2022-07-30T22:37:09.194Z,100693.81
2022-07-30T22:39:51.515Z,100698.72
2022-07-30T22:42:20.925Z,100682.44
2022-07-30T22:44:52.851Z,100685.44
2022-07-30T22:47:51.086Z,100696.44
2022-07-30T22:50:11.625Z,100678.22
2022-07-30T22:52:40.200Z,100696.19
2022-07-30T22:55:22.293Z,100671.66
2022-07-30T22:57:50.922Z,100702.25
2022-07-30T23:00:27.087Z,100701.72
2022-07-30T23:02:55.568Z,100703.09
2022-07-30T23:05:26.250Z,100700.28
2022-07-30T23:07:54.144Z,100699.41
2022-07-30T23:10:22.958Z,100695.00
2022-07-30T23:12:53.569Z,100695.31
2022-07-30T23:15:22.347Z,100702.16
2022-07-30T23:17:50.235Z,100683.88
2022-07-30T23:20:21.234Z,100704.31
2022-07-30T23:22:50.906Z,100692.47
2022-07-30T23:25:19.127Z,100694.94
2022-07-30T23:27:47.440Z,100710.00
2022-07-30T23:30:16.787Z,100673.94
2022-07-30T23:32:44.879Z,100685.53
2022-07-30T23:35:12.683Z,100708.97
2022-07-30T23:37:48.238Z,100711.41
2022-07-30T23:40:19.290Z,100703.72
2022-07-30T23:42:47.288Z,100695.78
2022-07-30T23:45:15.460Z,100690.00
2022-07-30T23:48:00.763Z,100700.22
2022-07-30T23:50:30.214Z,100694.22
2022-07-30T23:52:58.110Z,100696.66
2022-07-30T23:55:27.830Z,100690.78
2022-07-30T23:57:55.850Z,100701.53
